createdAt,value
2022-07-26T00:00:26.813Z,99197.66
2022-07-26T00:02:55.125Z,99207.50
2022-07-26T00:05:23.249Z,99205.88
2022-07-26T00:08:11.106Z,99198.75
2022-07-26T00:10:42.312Z,99200.38
2022-07-26T00:13:11.177Z,99185.81
2022-07-26T00:15:40.558Z,99197.66
2022-07-26T00:18:23.158Z,99202.81
2022-07-26T00:20:51.603Z,99212.84
2022-07-26T00:23:21.184Z,99212.28
2022-07-26T00:25:49.249Z,99208.19
2022-07-26T00:28:17.521Z,99206.28
2022-07-26T00:30:46.661Z,99210.34
2022-07-26T00:33:15.360Z,99209.25
2022-07-26T00:35:43.505Z,99204.84
2022-07-26T00:38:11.613Z,99195.34
2022-07-26T00:40:41.103Z,99195.06
2022-07-26T00:43:09.806Z,99187.22
2022-07-26T00:45:50.475Z,99185.59
2022-07-26T00:48:19.156Z,99189.94
2022-07-26T00:50:47.905Z,99179.88
2022-07-26T00:53:16.117Z,99174.22
2022-07-26T00:55:45.723Z,99180.44
2022-07-26T00:58:13.864Z,99176.38
2022-07-26T01:00:42.008Z,99167.94
2022-07-26T01:03:11.494Z,99162.78
2022-07-26T01:05:39.777Z,99172.53
2022-07-26T01:08:07.898Z,99162.47
2022-07-26T01:10:39.496Z,99158.16
2022-07-26T01:13:10.693Z,99159.47
2022-07-26T01:15:39.290Z,99158.38
2022-07-26T01:18:07.462Z,99158.38
2022-07-26T01:20:36.036Z,99157.06
2022-07-26T01:23:05.801Z,99144.41
2022-07-26T01:25:43.158Z,99152.00
2022-07-26T01:28:19.819Z,99137.66
2022-07-26T01:30:48.808Z,99131.72
2022-07-26T01:33:19.130Z,99142.56
2022-07-26T01:35:47.310Z,99131.22
2022-07-26T01:38:16.973Z,99136.34
2022-07-26T01:40:45.188Z,99137.16
2022-07-26T01:43:13.509Z,99145.50
2022-07-26T01:45:41.801Z,99146.31
2022-07-26T01:48:10.897Z,99148.72
2022-07-26T01:50:39.228Z,99138.69
2022-07-26T01:53:07.455Z,99129.47
2022-07-26T01:55:37.705Z,99127.03
2022-07-26T01:58:06.613Z,99128.66
2022-07-26T02:00:38.067Z,99123.53
2022-07-26T02:03:06.643Z,99112.09
2022-07-26T02:05:34.901Z,99102.06
2022-07-26T02:08:03.162Z,99118.06
2022-07-26T02:10:56.246Z,99112.63
2022-07-26T02:13:26.318Z,99113.97
2022-07-26T02:15:54.667Z,99113.97
2022-07-26T02:18:22.884Z,99114.78
2022-07-26T02:20:51.148Z,99107.44
2022-07-26T02:23:22.294Z,99114.47
2022-07-26T02:25:54.886Z,99108.25
2022-07-26T02:28:25.056Z,99114.47
2022-07-26T02:30:53.466Z,99109.56
2022-07-26T02:33:22.701Z,99104.13
2022-07-26T02:35:50.764Z,99115.88
2022-07-26T02:38:41.115Z,99105.31
2022-07-26T02:41:10.624Z,99101.31
2022-07-26T02:43:38.885Z,99112.75
2022-07-26T02:46:07.419Z,99107.13
2022-07-26T02:48:35.683Z,99105.59
2022-07-26T02:51:04.141Z,99114.53
2022-07-26T02:53:39.498Z,99106.47
2022-07-26T02:56:07.919Z,99110.38
2022-07-26T02:58:38.246Z,99119.38
2022-07-26T03:01:06.851Z,99128.34
2022-07-26T03:03:38.278Z,99127.34
2022-07-26T03:06:06.655Z,99127.13
2022-07-26T03:08:39.348Z,99123.69
2022-07-26T03:11:12.015Z,99131.63
2022-07-26T03:13:42.579Z,99127.94
2022-07-26T03:16:10.754Z,99134.72
2022-07-26T03:18:39.145Z,99130.72
2022-07-26T03:21:10.449Z,99136.16
2022-07-26T03:23:38.381Z,99151.91
2022-07-26T03:26:06.603Z,99154.09
2022-07-26T03:28:37.743Z,99156.78
2022-07-26T03:31:07.289Z,99160.81
2022-07-26T03:33:38.810Z,99162.44
2022-07-26T03:36:11.517Z,99168.69
2022-07-26T03:38:43.647Z,99167.59
2022-07-26T03:41:13.813Z,99159.47
2022-07-26T03:43:42.288Z,99155.69
2022-07-26T03:46:13.582Z,99154.34
2022-07-26T03:48:41.667Z,99146.50
2022-07-26T03:51:11.001Z,99152.19
2022-07-26T03:53:40.019Z,99152.19
2022-07-26T03:56:25.606Z,99141.09
2022-07-26T03:58:54.221Z,99133.81
2022-07-26T04:01:32.098Z,99134.38
2022-07-26T04:04:00.788Z,99137.06
2022-07-26T04:06:31.976Z,99138.44
2022-07-26T04:09:00.423Z,99126.75
2022-07-26T04:11:56.133Z,99125.41
2022-07-26T04:14:24.151Z,99141.31
2022-07-26T04:17:10.182Z,99154.78
2022-07-26T04:19:40.459Z,99151.22
2022-07-26T04:22:08.536Z,99157.34
2022-07-26T04:24:36.717Z,99164.88
2022-07-26T04:27:05.112Z,99159.72
2022-07-26T04:29:33.220Z,99166.19
2022-07-26T04:32:01.505Z,99167.81
2022-07-26T04:34:31.064Z,99169.69
2022-07-26T04:36:59.164Z,99161.84
2022-07-26T04:39:35.538Z,99171.31
2022-07-26T04:42:03.668Z,99166.72
2022-07-26T04:44:31.909Z,99164.28
2022-07-26T04:46:59.977Z,99165.66
2022-07-26T04:49:31.636Z,99159.72
2022-07-26T04:52:01.218Z,99154.56
2022-07-26T04:54:36.584Z,99158.66
2022-07-26T04:57:12.579Z,99159.44
2022-07-26T04:59:40.746Z,99161.59
2022-07-26T05:02:08.976Z,99167.00
2022-07-26T05:04:37.166Z,99162.59
2022-07-26T05:07:06.681Z,99153.91
2022-07-26T05:09:37.846Z,99158.13
2022-07-26T05:12:08.029Z,99153.16
2022-07-26T05:14:39.094Z,99151.47
2022-07-26T05:17:09.040Z,99148.44
2022-07-26T05:19:39.123Z,99151.56
2022-07-26T05:22:09.267Z,99142.34
2022-07-26T05:24:37.366Z,99153.09
2022-07-26T05:27:05.833Z,99136.56
2022-07-26T05:29:40.451Z,99154.91
2022-07-26T05:32:09.356Z,99151.63
2022-07-26T05:34:37.412Z,99154.13
2022-07-26T05:37:05.593Z,99152.78
2022-07-26T05:39:35.465Z,99150.88
2022-07-26T05:42:04.052Z,99147.34
2022-07-26T05:44:33.037Z,99150.22
2022-07-26T05:47:01.265Z,99136.50
2022-07-26T05:49:39.711Z,99142.56
2022-07-26T05:52:09.362Z,99138.16
2022-07-26T05:54:39.103Z,99128.31
2022-07-26T05:57:07.330Z,99132.94
2022-07-26T05:59:35.374Z,99134.97
2022-07-26T06:02:03.560Z,99143.75
2022-07-26T06:04:35.052Z,99144.28
2022-07-26T06:07:03.999Z,99142.28
2022-07-26T06:09:33.029Z,99148.47
2022-07-26T06:12:04.565Z,99164.63
2022-07-26T06:14:32.863Z,99159.25
2022-07-26T06:17:01.281Z,99174.97
2022-07-26T06:19:33.593Z,99168.50
2022-07-26T06:22:01.886Z,99170.44
2022-07-26T06:24:39.530Z,99163.88
2022-07-26T06:27:09.295Z,99168.72
2022-07-26T06:29:37.474Z,99168.44
2022-07-26T06:32:05.991Z,99161.91
2022-07-26T06:34:34.193Z,99162.41
2022-07-26T06:37:02.298Z,99159.59
2022-07-26T06:39:41.289Z,99160.84
2022-07-26T06:42:11.117Z,99159.94
2022-07-26T06:44:39.407Z,99159.75
2022-07-26T06:47:07.693Z,99160.25
2022-07-26T06:49:36.284Z,99151.69
2022-07-26T06:52:04.862Z,99163.44
2022-07-26T06:54:34.884Z,99156.13
2022-07-26T06:57:03.466Z,99146.66
2022-07-26T06:59:36.564Z,99143.44
2022-07-26T07:02:04.986Z,99134.69
2022-07-26T07:04:34.549Z,99152.47
2022-07-26T07:07:06.121Z,99150.44
2022-07-26T07:09:38.794Z,99145.09
2022-07-26T07:12:09.715Z,99144.47
2022-07-26T07:14:40.786Z,99150.34
2022-07-26T07:17:13.034Z,99148.84
2022-07-26T07:19:43.965Z,99152.06
2022-07-26T07:22:12.951Z,99149.41
2022-07-26T07:24:42.072Z,99145.56
2022-07-26T07:27:10.897Z,99148.31
2022-07-26T07:29:42.016Z,99143.00
2022-07-26T07:32:15.792Z,99138.28
2022-07-26T07:34:47.649Z,99140.63
2022-07-26T07:37:16.197Z,99137.41
2022-07-26T07:39:44.440Z,99137.72
2022-07-26T07:42:18.411Z,99125.69
2022-07-26T07:44:50.316Z,99129.88
2022-07-26T07:47:19.447Z,99138.84
2022-07-26T07:49:47.637Z,99138.47
2022-07-26T07:52:16.077Z,99140.63
2022-07-26T07:54:46.393Z,99144.66
2022-07-26T07:57:14.396Z,99136.47
2022-07-26T07:59:42.869Z,99129.00
2022-07-26T08:02:15.204Z,99130.59
2022-07-26T08:04:43.377Z,99133.78
2022-07-26T08:07:11.493Z,99131.88
2022-07-26T08:09:42.824Z,99131.41
2022-07-26T08:12:12.423Z,99134.13
2022-07-26T08:14:41.441Z,99125.00
2022-07-26T08:17:10.040Z,99134.22
2022-07-26T08:19:42.041Z,99134.13
2022-07-26T08:22:11.731Z,99129.22
2022-07-26T08:24:40.756Z,99144.47
2022-07-26T08:27:08.927Z,99139.81
2022-07-26T08:29:37.225Z,99143.97
2022-07-26T08:32:05.953Z,99144.28
2022-07-26T08:34:34.996Z,99143.31
2022-07-26T08:37:17.121Z,99153.53
2022-07-26T08:39:45.887Z,99144.91
2022-07-26T08:42:16.494Z,99153.03
2022-07-26T08:44:46.000Z,99146.31
2022-07-26T08:47:14.781Z,99157.50
2022-07-26T08:49:43.966Z,99155.66
2022-07-26T08:52:17.385Z,99156.59
2022-07-26T08:54:47.483Z,99159.72
2022-07-26T08:57:15.600Z,99164.66
2022-07-26T08:59:44.346Z,99153.78
2022-07-26T09:02:14.770Z,99163.97
2022-07-26T09:04:47.414Z,99167.34
2022-07-26T09:07:24.902Z,99158.94
2022-07-26T09:09:59.926Z,99156.69
2022-07-26T09:12:31.192Z,99166.84
2022-07-26T09:15:00.425Z,99162.91
2022-07-26T09:17:40.802Z,99167.13
2022-07-26T09:20:11.834Z,99169.69
2022-07-26T09:23:01.978Z,99164.53
2022-07-26T09:25:32.294Z,99169.25
2022-07-26T09:28:00.877Z,99167.84
2022-07-26T09:30:30.489Z,99167.91
2022-07-26T09:33:02.455Z,99166.47
2022-07-26T09:35:51.095Z,99170.34
2022-07-26T09:38:24.358Z,99164.25
2022-07-26T09:40:55.561Z,99159.91
2022-07-26T09:43:24.546Z,99179.28
2022-07-26T09:46:05.551Z,99192.44
2022-07-26T09:48:59.536Z,99192.28
2022-07-26T09:51:43.210Z,99194.59
2022-07-26T09:54:18.437Z,99211.53
2022-07-26T09:56:50.863Z,99210.06
2022-07-26T09:59:20.220Z,99207.56
2022-07-26T10:01:49.271Z,99214.72
2022-07-26T10:04:17.526Z,99215.94
2022-07-26T10:06:45.711Z,99212.16
2022-07-26T10:09:19.889Z,99213.09
2022-07-26T10:11:54.331Z,99213.72
2022-07-26T10:14:42.509Z,99213.31
2022-07-26T10:17:46.859Z,99211.22
2022-07-26T10:20:45.727Z,99234.44
2022-07-26T10:23:52.637Z,99219.94
2022-07-26T10:26:45.559Z,99235.94
2022-07-26T10:29:28.790Z,99228.97
2022-07-26T10:32:21.578Z,99243.44
2022-07-26T10:34:49.717Z,99243.56
2022-07-26T10:37:29.833Z,99237.09
2022-07-26T10:40:27.954Z,99249.22
2022-07-26T10:43:37.975Z,99247.38
2022-07-26T10:46:28.378Z,99248.88
2022-07-26T10:48:57.995Z,99261.22
2022-07-26T10:51:27.972Z,99258.44
2022-07-26T10:54:03.779Z,99254.03
2022-07-26T10:56:33.765Z,99260.28
2022-07-26T10:59:04.427Z,99265.78
2022-07-26T11:01:36.457Z,99273.78
2022-07-26T11:04:05.527Z,99273.78
2022-07-26T11:06:36.062Z,99274.44
2022-07-26T11:09:12.706Z,99286.66
2022-07-26T11:11:47.095Z,99283.91
2022-07-26T11:14:18.811Z,99284.34
2022-07-26T11:16:50.921Z,99277.44
2022-07-26T11:19:21.417Z,99278.59
2022-07-26T11:21:55.475Z,99283.22
2022-07-26T11:24:23.785Z,99276.38
2022-07-26T11:26:52.557Z,99269.00
2022-07-26T11:29:35.644Z,99276.25
2022-07-26T11:32:16.408Z,99275.97
2022-07-26T11:34:46.201Z,99277.97
2022-07-26T11:37:14.850Z,99281.78
2022-07-26T11:39:42.930Z,99282.72
2022-07-26T11:44:57.436Z,99280.97
2022-07-26T11:47:26.728Z,99270.63
2022-07-26T11:52:44.285Z,99277.94
2022-07-26T11:55:12.678Z,99283.53
2022-07-26T11:57:40.901Z,99277.28
2022-07-26T12:00:12.509Z,99280.00
2022-07-26T12:02:40.841Z,99262.16
2022-07-26T12:05:17.982Z,99270.41
2022-07-26T12:08:00.883Z,99267.72
2022-07-26T12:10:30.609Z,99263.09
2022-07-26T12:13:09.711Z,99267.78
2022-07-26T12:15:56.938Z,99267.00
2022-07-26T12:18:27.388Z,99271.25
2022-07-26T12:21:05.460Z,99272.28
2022-07-26T12:23:45.758Z,99268.47
2022-07-26T12:26:21.963Z,99282.50
2022-07-26T12:28:52.517Z,99249.47
2022-07-26T12:31:27.805Z,99266.19
2022-07-26T12:33:56.422Z,99280.84
2022-07-26T12:36:29.552Z,99268.56
2022-07-26T12:38:59.273Z,99262.97
2022-07-26T12:41:35.152Z,99266.53
2022-07-26T12:44:05.438Z,99276.16
2022-07-26T12:46:36.058Z,99273.09
2022-07-26T12:49:05.429Z,99287.31
2022-07-26T12:51:33.675Z,99276.31
2022-07-26T12:54:01.695Z,99271.03
2022-07-26T12:56:29.710Z,99268.16
2022-07-26T12:59:02.022Z,99269.28
2022-07-26T13:01:40.430Z,99264.94
2022-07-26T13:04:09.128Z,99254.84
2022-07-26T13:06:37.766Z,99262.22
2022-07-26T13:09:07.765Z,99267.53
2022-07-26T13:11:35.713Z,99276.56
2022-07-26T13:14:03.667Z,99280.06
2022-07-26T13:16:45.344Z,99284.84
2022-07-26T13:19:13.464Z,99287.75
2022-07-26T13:21:41.893Z,99292.44
2022-07-26T13:24:11.417Z,99290.41
2022-07-26T13:26:41.139Z,99294.75
2022-07-26T13:29:09.823Z,99292.13
2022-07-26T13:31:40.007Z,99287.13
2022-07-26T13:34:09.641Z,99292.28
2022-07-26T13:36:38.030Z,99300.19
2022-07-26T13:39:06.953Z,99303.75
2022-07-26T13:41:35.840Z,99284.34
2022-07-26T13:44:06.547Z,99282.03
2022-07-26T13:46:34.778Z,99274.94
2022-07-26T13:49:04.373Z,99277.00
2022-07-26T13:51:53.915Z,99276.78
2022-07-26T13:54:26.516Z,99269.97
2022-07-26T13:56:55.415Z,99286.75
2022-07-26T13:59:23.621Z,99298.16
2022-07-26T14:01:52.203Z,99295.16
2022-07-26T14:04:34.666Z,99303.94
2022-07-26T14:07:04.560Z,99310.34
2022-07-26T14:09:34.163Z,99312.66
2022-07-26T14:12:02.798Z,99316.41
2022-07-26T14:14:31.229Z,99308.66
2022-07-26T14:16:59.533Z,99309.22
2022-07-26T14:19:27.611Z,99304.53
2022-07-26T14:21:58.918Z,99306.69
2022-07-26T14:24:30.504Z,99300.75
2022-07-26T14:26:59.815Z,99313.19
2022-07-26T14:29:30.001Z,99305.16
2022-07-26T14:31:58.227Z,99298.63
2022-07-26T14:34:27.353Z,99298.16
2022-07-26T14:36:55.452Z,99311.69
2022-07-26T14:39:24.132Z,99299.25
2022-07-26T14:41:53.534Z,99301.53
2022-07-26T14:44:23.515Z,99301.31
2022-07-26T14:46:51.733Z,99304.59
2022-07-26T14:49:20.408Z,99296.06
2022-07-26T14:51:48.804Z,99304.50
2022-07-26T14:54:18.019Z,99302.50
2022-07-26T14:56:45.962Z,99305.50
2022-07-26T14:59:15.592Z,99311.94
2022-07-26T15:01:43.644Z,99311.53
2022-07-26T15:04:13.963Z,99307.66
2022-07-26T15:06:42.672Z,99303.16
2022-07-26T15:09:10.687Z,99330.13
2022-07-26T15:11:42.289Z,99329.63
2022-07-26T15:14:10.748Z,99332.59
2022-07-26T15:16:40.507Z,99336.56
2022-07-26T15:19:08.423Z,99335.81
2022-07-26T15:21:36.570Z,99337.59
2022-07-26T15:24:04.809Z,99335.47
2022-07-26T15:26:32.834Z,99333.84
2022-07-26T15:29:00.863Z,99342.03
2022-07-26T15:31:37.031Z,99344.44
2022-07-26T15:34:08.834Z,99354.53
2022-07-26T15:36:37.368Z,99349.72
2022-07-26T15:39:16.598Z,99351.44
2022-07-26T15:41:45.792Z,99356.56
2022-07-26T15:44:14.547Z,99350.53
2022-07-26T15:46:46.147Z,99352.34
2022-07-26T15:49:18.526Z,99369.06
2022-07-26T15:51:48.588Z,99374.47
2022-07-26T15:54:17.168Z,99365.41
2022-07-26T15:56:46.209Z,99368.31
2022-07-26T15:59:14.177Z,99374.63
2022-07-26T16:01:42.228Z,99374.69
2022-07-26T16:04:10.678Z,99369.63
2022-07-26T16:06:51.312Z,99372.75
2022-07-26T16:09:22.080Z,99365.13
2022-07-26T16:11:52.512Z,99366.75
2022-07-26T16:14:28.493Z,99373.88
2022-07-26T16:16:59.350Z,99369.69
2022-07-26T16:19:27.583Z,99374.75
2022-07-26T16:21:57.064Z,99371.22
2022-07-26T16:24:39.762Z,99362.06
2022-07-26T16:27:08.010Z,99375.50
2022-07-26T16:29:36.606Z,99371.00
2022-07-26T16:32:04.714Z,99380.47
2022-07-26T16:34:34.931Z,99373.91
2022-07-26T16:37:04.683Z,99377.13
2022-07-26T16:39:32.712Z,99381.25
2022-07-26T16:42:06.829Z,99378.16
2022-07-26T16:44:36.396Z,99375.38
2022-07-26T16:47:05.517Z,99380.28
2022-07-26T16:49:33.745Z,99372.00
2022-07-26T16:52:01.724Z,99375.78
2022-07-26T16:54:31.333Z,99380.47
2022-07-26T16:56:59.469Z,99379.56
2022-07-26T16:59:28.717Z,99388.13
2022-07-26T17:01:56.982Z,99379.47
2022-07-26T17:04:29.827Z,99386.53
2022-07-26T17:07:23.348Z,99381.88
2022-07-26T17:09:48.323Z,99383.94
2022-07-26T17:12:35.255Z,99385.56
2022-07-26T17:15:03.477Z,99386.00
2022-07-26T17:17:32.415Z,99377.91
2022-07-26T17:20:00.710Z,99383.81
2022-07-26T17:22:28.676Z,99382.81
2022-07-26T17:25:00.582Z,99389.69
2022-07-26T17:27:28.615Z,99387.19
2022-07-26T17:29:56.665Z,99393.38
2022-07-26T17:32:25.293Z,99405.22
2022-07-26T17:34:54.129Z,99395.50
2022-07-26T17:37:22.174Z,99401.81
2022-07-26T17:39:53.411Z,99392.50
2022-07-26T17:42:23.646Z,99405.03
2022-07-26T17:44:52.372Z,99399.59
2022-07-26T17:47:29.418Z,99399.75
2022-07-26T17:50:14.137Z,99389.50
2022-07-26T17:52:48.271Z,99402.44
2022-07-26T17:55:16.713Z,99403.19
2022-07-26T17:57:46.230Z,99405.19
2022-07-26T18:00:15.547Z,99399.13
2022-07-26T18:02:43.607Z,99404.38
2022-07-26T18:05:12.246Z,99404.94
2022-07-26T18:07:40.872Z,99402.69
2022-07-26T18:10:11.828Z,99412.81
2022-07-26T18:12:40.295Z,99411.50
2022-07-26T18:15:11.051Z,99409.06
2022-07-26T18:17:39.470Z,99394.22
2022-07-26T18:20:09.089Z,99401.94
2022-07-26T18:22:37.419Z,99416.09
2022-07-26T18:25:06.105Z,99409.09
2022-07-26T18:27:34.362Z,99405.63
2022-07-26T18:30:02.645Z,99412.97
2022-07-26T18:32:32.486Z,99411.63
2022-07-26T18:35:00.350Z,99415.69
2022-07-26T18:37:28.616Z,99423.53
2022-07-26T18:39:58.235Z,99420.09
2022-07-26T18:42:26.879Z,99416.66
2022-07-26T18:44:55.568Z,99422.91
2022-07-26T18:47:23.820Z,99421.03
2022-07-26T18:49:53.124Z,99419.63
2022-07-26T18:52:31.761Z,99422.63
2022-07-26T18:55:02.415Z,99422.09
2022-07-26T18:57:30.462Z,99421.53
2022-07-26T18:59:58.424Z,99431.16
2022-07-26T19:02:26.497Z,99425.41
2022-07-26T19:04:56.007Z,99428.06
2022-07-26T19:07:24.111Z,99422.63
2022-07-26T19:09:58.398Z,99426.44
2022-07-26T19:12:28.251Z,99428.13
2022-07-26T19:14:56.545Z,99426.56
2022-07-26T19:17:24.642Z,99426.53
2022-07-26T19:19:52.771Z,99433.09
2022-07-26T19:22:23.975Z,99428.72
2022-07-26T19:24:52.034Z,99440.69
2022-07-26T19:27:20.342Z,99440.78
2022-07-26T19:29:49.562Z,99440.25
2022-07-26T19:32:17.910Z,99442.97
2022-07-26T19:34:46.149Z,99450.53
2022-07-26T19:37:24.309Z,99437.28
2022-07-26T19:39:55.908Z,99461.09
2022-07-26T19:42:23.920Z,99459.75
2022-07-26T19:44:52.180Z,99452.44
2022-07-26T19:47:21.201Z,99465.19
2022-07-26T19:49:49.350Z,99456.00
2022-07-26T19:52:17.438Z,99461.41
2022-07-26T19:54:45.518Z,99461.38
2022-07-26T19:57:15.204Z,99466.53
2022-07-26T19:59:43.141Z,99460.03
2022-07-26T20:02:11.720Z,99458.13
2022-07-26T20:04:45.470Z,99467.34
2022-07-26T20:07:19.778Z,99467.06
2022-07-26T20:09:50.103Z,99470.03
2022-07-26T20:12:21.939Z,99476.28
2022-07-26T20:14:50.063Z,99472.78
2022-07-26T20:17:18.879Z,99479.25
2022-07-26T20:19:46.975Z,99484.69
2022-07-26T20:22:15.096Z,99487.09
2022-07-26T20:24:43.024Z,99483.81
2022-07-26T20:27:11.767Z,99488.97
2022-07-26T20:29:41.182Z,99499.00
2022-07-26T20:32:09.538Z,99505.72
2022-07-26T20:34:37.582Z,99493.31
2022-07-26T20:37:05.689Z,99487.88
2022-07-26T20:39:34.814Z,99490.06
2022-07-26T20:42:03.263Z,99492.00
2022-07-26T20:44:32.002Z,99497.66
2022-07-26T20:47:01.320Z,99500.66
2022-07-26T20:49:29.738Z,99500.09
2022-07-26T20:51:58.198Z,99503.91
2022-07-26T20:54:26.262Z,99496.84
2022-07-26T20:56:54.392Z,99503.53
2022-07-26T20:59:25.549Z,99503.53
2022-07-26T21:01:54.019Z,99496.47
2022-07-26T21:04:23.802Z,99513.00
2022-07-26T21:06:51.874Z,99509.53
2022-07-26T21:09:23.746Z,99512.47
2022-07-26T21:11:52.453Z,99505.44
2022-07-26T21:14:20.789Z,99504.56
2022-07-26T21:16:49.075Z,99514.34
2022-07-26T21:19:17.715Z,99514.91
2022-07-26T21:21:47.150Z,99521.91
2022-07-26T21:24:15.364Z,99523.59
2022-07-26T21:26:43.337Z,99534.72
2022-07-26T21:29:12.797Z,99536.63
2022-07-26T21:31:41.342Z,99530.13
2022-07-26T21:34:10.745Z,99532.84
2022-07-26T21:36:40.465Z,99538.00
2022-07-26T21:39:10.874Z,99542.34
2022-07-26T21:41:39.302Z,99539.63
2022-07-26T21:44:07.647Z,99544.75
2022-07-26T21:46:36.048Z,99543.41
2022-07-26T21:49:05.711Z,99540.72
2022-07-26T21:51:35.865Z,99542.06
2022-07-26T21:54:04.006Z,99535.56
2022-07-26T21:56:34.365Z,99534.47
2022-07-26T21:59:02.478Z,99545.00
2022-07-26T22:01:30.615Z,99539.06
2022-07-26T22:03:58.636Z,99546.13
2022-07-26T22:06:26.816Z,99550.72
2022-07-26T22:08:56.692Z,99546.66
2022-07-26T22:11:24.809Z,99552.06
2022-07-26T22:13:54.293Z,99549.63
2022-07-26T22:16:22.325Z,99542.56
2022-07-26T22:18:50.713Z,99548.53
2022-07-26T22:21:18.995Z,99549.03
2022-07-26T22:24:12.175Z,99549.56
2022-07-26T22:26:42.223Z,99557.66
2022-07-26T22:29:12.116Z,99551.44
2022-07-26T22:31:40.377Z,99559.28
2022-07-26T22:34:08.518Z,99553.25
2022-07-26T22:36:36.596Z,99550.75
2022-07-26T22:39:05.507Z,99549.88
2022-07-26T22:41:57.488Z,99551.50
2022-07-26T22:44:27.126Z,99548.53
2022-07-26T22:46:55.458Z,99547.25
2022-07-26T22:49:23.552Z,99543.44
2022-07-26T22:51:52.120Z,99537.25
2022-07-26T22:54:20.388Z,99539.44
2022-07-26T22:56:49.233Z,99547.56
2022-07-26T22:59:17.536Z,99541.91
2022-07-26T23:01:46.866Z,99549.50
2022-07-26T23:04:14.954Z,99549.81
2022-07-26T23:06:44.607Z,99551.16
2022-07-26T23:09:14.967Z,99551.19
2022-07-26T23:11:43.047Z,99544.16
2022-07-26T23:14:12.039Z,99557.47
2022-07-26T23:16:40.383Z,99550.97
2022-07-26T23:19:10.175Z,99544.78
2022-07-26T23:21:38.720Z,99551.44
2022-07-26T23:24:07.122Z,99548.69
2022-07-26T23:26:35.220Z,99537.63
2022-07-26T23:29:03.345Z,99534.13
2022-07-26T23:31:31.718Z,99531.16
2022-07-26T23:33:59.906Z,99527.34
2022-07-26T23:36:30.032Z,99531.34
2022-07-26T23:39:00.001Z,99528.63
2022-07-26T23:41:29.245Z,99530.03
2022-07-26T23:43:58.267Z,99524.09
2022-07-26T23:46:26.519Z,99527.06
2022-07-26T23:48:55.813Z,99527.88
2022-07-26T23:51:24.180Z,99527.31
2022-07-26T23:54:01.466Z,99525.69
2022-07-26T23:56:29.503Z,99527.56
2022-07-26T23:58:58.090Z,99527.00
